Time;durP1;ratioP1;P1;durP2;ratioP2;P2;SDS_P1;SDS_P2;PMS_P1;PMS_P2;Temp;Humidity;BMP_temperature;BMP_pressure;BME280_temperature;BME280_humidity;BME280_pressure;Samples;Min_cycle;Max_cycle;Signal;HPM_P1;HPM_P2
2022/10/20 06:17:02;;;;;;;;;4.75;4.75;;;;;18.81;75.06;100892.09;2359378;28;76477;-87
2022/10/20 06:18:12;;;;;;;;;6.25;5.25;;;;;18.80;74.50;100887.72;2374703;28;45259;-87
2022/10/20 06:19:24;;;;;;;;;7.50;6.00;;;;;18.80;74.54;100890.38;2374425;28;45322;-88
2022/10/20 06:20:34;;;;;;;;;5.50;5.00;;;;;18.80;74.18;100893.03;2376880;28;45242;-89
2022/10/20 06:21:45;;;;;;;;;7.00;7.00;;;;;18.81;74.36;100893.88;2367153;28;47872;-89
2022/10/20 06:22:55;;;;;;;;;5.50;5.00;;;;;18.78;74.66;100895.81;2367567;28;44705;-88
2022/10/20 06:24:06;;;;;;;;;3.00;2.00;;;;;18.78;74.25;100895.81;2360075;29;46909;-88
2022/10/20 06:25:16;;;;;;;;;7.25;5.25;;;;;18.78;74.32;100881.63;2358087;29;45427;-88
2022/10/20 06:26:28;;;;;;;;;6.00;5.75;;;;;18.77;74.82;100879.91;2353300;29;47114;-87
2022/10/20 06:27:41;;;;;;;;;6.50;6.00;;;;;18.77;74.31;100877.25;2364065;28;44841;-87
2022/10/20 06:28:56;;;;;;;;;7.25;6.00;;;;;18.76;74.51;100864.91;2361216;29;47350;-88
2022/10/20 06:30:07;;;;;;;;;5.00;5.00;;;;;18.74;74.78;100861.50;2370539;28;45378;-88
2022/10/20 06:31:21;;;;;;;;;9.00;5.50;;;;;18.76;74.65;100860.44;2375072;28;45532;-88
2022/10/20 06:32:32;;;;;;;;;9.75;4.75;;;;;18.75;74.28;100869.38;2365895;28;44821;-88
2022/10/20 06:33:43;;;;;;;;;7.75;6.00;;;;;18.75;74.50;100863.19;2365399;29;47228;-88
2022/10/20 06:34:53;;;;;;;;;2.75;2.75;;;;;18.75;74.18;100871.19;2368647;28;45183;-88
2022/10/20 06:36:03;;;;;;;;;7.50;6.50;;;;;18.74;74.75;100867.66;2375630;28;46348;-88
2022/10/20 06:37:14;;;;;;;;;8.25;6.25;;;;;18.76;74.61;100867.56;2375569;28;45377;-88
2022/10/20 06:38:24;;;;;;;;;5.50;5.50;;;;;18.73;74.43;100860.63;2375696;28;46279;-88
2022/10/20 06:39:34;;;;;;;;;5.50;5.50;;;;;18.74;74.31;100861.50;2375731;28;44700;-89
2022/10/20 06:40:45;;;;;;;;;5.50;4.75;;;;;18.73;74.24;100862.44;2375669;28;45344;-89
2022/10/20 06:41:55;;;;;;;;;6.00;6.00;;;;;18.71;74.57;100854.56;2375643;28;45260;-89
2022/10/20 06:43:06;;;;;;;;;7.50;5.50;;;;;18.71;74.18;100849.25;2375725;28;45612;-88
2022/10/20 06:44:17;;;;;;;;;9.25;6.00;;;;;18.70;74.24;100855.50;2375722;28;45323;-89
2022/10/20 06:45:27;;;;;;;;;4.25;4.25;;;;;18.69;73.87;100859.16;2374680;28;46742;-88
2022/10/20 06:46:37;;;;;;;;;6.75;5.75;;;;;18.67;73.87;100855.69;2375492;28;44646;-90
2022/10/20 06:47:48;;;;;;;;;5.00;5.00;;;;;18.66;74.04;100849.56;2371048;28;46467;-88
2022/10/20 06:49:00;;;;;;;;;5.25;4.00;;;;;18.66;74.20;100854.88;2362857;28;44751;-89
2022/10/20 06:50:10;;;;;;;;;5.75;5.75;;;;;18.64;74.03;100864.75;2366192;28;46159;-90
2022/10/20 06:51:21;;;;;;;;;3.50;3.00;;;;;18.66;74.11;100868.19;2373159;28;45833;-90
2022/10/20 06:52:31;;;;;;;;;5.25;5.25;;;;;18.64;73.64;100878.06;2373806;28;47261;-88
2022/10/20 06:53:42;;;;;;;;;7.50;7.50;;;;;18.64;74.35;100882.53;2364445;28;45402;-88
2022/10/20 06:54:52;;;;;;;;;7.00;4.00;;;;;18.65;73.97;100885.09;2358937;29;47380;-89
2022/10/20 06:56:06;;;;;;;;;6.00;4.00;;;;;18.66;74.07;100899.25;2364500;28;45873;-89
2022/10/20 06:57:16;;;;;;;;;6.75;5.25;;;;;18.65;74.08;100897.53;2374369;28;46479;-89
2022/10/20 06:58:28;;;;;;;;;7.75;5.25;;;;;18.65;74.25;100902.88;2375133;28;45188;-90
2022/10/20 06:59:38;;;;;;;;;7.75;6.25;;;;;18.63;74.30;100900.31;2375240;28;46358;-90
2022/10/20 07:00:58;;;;;;;;;5.00;5.00;;;;;18.61;73.95;100912.88;2374691;28;44689;-89
2022/10/20 07:02:10;;;;;;;;;7.25;6.00;;;;;18.61;74.19;100920.00;2371857;28;47194;-88
2022/10/20 07:03:21;;;;;;;;;4.00;2.50;;;;;18.60;73.88;100927.13;2372736;28;44705;-88
2022/10/20 07:04:31;;;;;;;;;7.00;6.00;;;;;18.59;73.71;100932.56;2374289;28;45410;-88
2022/10/20 07:05:41;;;;;;;;;8.25;5.00;;;;;18.59;73.79;100933.41;2374493;28;45226;-88
2022/10/20 07:06:52;;;;;;;;;11.50;7.00;;;;;18.60;74.00;100939.56;2377953;28;46513;-90
2022/10/20 07:08:02;;;;;;;;;5.50;4.50;;;;;18.61;74.30;100943.97;2365498;29;45327;-90
2022/10/20 07:09:19;;;;;;;;;6.25;5.00;;;;;18.60;74.01;100944.91;2368001;28;48084;-89
2022/10/20 07:10:29;;;;;;;;;5.25;5.00;;;;;18.60;73.85;100944.91;2357976;29;45371;-89
2022/10/20 07:11:40;;;;;;;;;5.25;3.00;;;;;18.58;73.98;100947.66;2367135;28;46199;-90
2022/10/20 07:12:51;;;;;;;;;5.50;4.50;;;;;18.57;73.66;100951.28;2365834;29;45244;-90
2022/10/20 07:14:02;;;;;;;;;6.75;6.00;;;;;18.56;73.74;100952.25;2363010;29;46548;-90
2022/10/20 07:15:13;;;;;;;;;15.50;13.50;;;;;18.56;73.87;100952.25;2368704;28;44713;-90
2022/10/20 07:16:26;;;;;;;;;11.75;10.25;;;;;18.57;74.21;100959.25;2372978;28;45513;-89
2022/10/20 07:17:36;;;;;;;;;8.50;6.50;;;;;18.56;73.96;100970.88;2364995;29;45813;-90
2022/10/20 07:18:47;;;;;;;;;5.25;5.25;;;;;18.55;73.93;100970.00;2367689;28;46199;-90
2022/10/20 07:19:58;;;;;;;;;5.00;5.00;;;;;18.53;74.10;100971.91;2375233;28;45470;-89
2022/10/20 07:21:14;;;;;;;;;9.00;7.25;;;;;18.55;74.01;100969.16;2375256;28;46274;-89
2022/10/20 07:22:25;;;;;;;;;7.50;6.00;;;;;18.53;74.04;100979.03;2369445;28;45312;-89
2022/10/20 07:23:35;;;;;;;;;5.25;4.00;;;;;18.52;74.19;100986.16;2372381;28;46279;-91
2022/10/20 07:24:46;;;;;;;;;4.75;3.75;;;;;18.52;74.12;100986.16;2364113;29;45255;-90
2022/10/20 07:26:07;;;;;;;;;6.00;4.00;;;;;18.51;73.89;100986.28;2362291;29;46954;-91
2022/10/20 07:27:17;;;;;;;;;8.00;5.25;;;;;18.50;74.03;100985.41;2360534;29;45463;-90
2022/10/20 07:28:28;;;;;;;;;5.00;3.00;;;;;18.47;73.77;100982.94;2367045;28;45882;-90
2022/10/20 07:29:38;;;;;;;;;6.25;4.50;;;;;18.47;74.05;100995.41;2375423;28;44724;-89
2022/10/20 07:30:48;;;;;;;;;8.00;3.25;;;;;18.45;73.77;100987.50;2375026;28;45406;-89
2022/10/20 07:31:59;;;;;;;;;5.00;5.00;;;;;18.44;74.19;100993.78;2373820;28;45413;-89
2022/10/20 07:33:09;;;;;;;;;4.00;3.00;;;;;18.45;73.99;100995.50;2364822;29;47164;-90
2022/10/20 07:34:22;;;;;;;;;4.50;4.00;;;;;18.44;73.73;100985.81;2358900;29;45270;-89
2022/10/20 07:35:32;;;;;;;;;6.00;4.75;;;;;18.42;74.09;100996.53;2365320;29;47190;-90
2022/10/20 07:36:43;;;;;;;;;6.00;3.00;;;;;18.39;74.06;100996.75;2364595;28;45205;-88
2022/10/20 07:37:54;;;;;;;;;7.25;4.25;;;;;18.40;73.98;101000.25;2374835;28;45634;-90
2022/10/20 07:39:05;;;;;;;;;4.00;3.50;;;;;18.38;74.13;100988.84;2364943;29;44690;-90
2022/10/20 07:40:15;;;;;;;;;5.00;4.25;;;;;18.36;73.93;100991.59;2363158;29;45271;-89
2022/10/20 07:41:26;;;;;;;;;5.25;4.00;;;;;18.37;74.00;100993.31;2366917;28;44610;-89
2022/10/20 07:42:36;;;;;;;;;7.00;6.25;;;;;18.33;74.10;100987.34;2363053;28;48090;-90
2022/10/20 07:43:47;;;;;;;;;8.00;5.75;;;;;18.33;73.74;100987.34;2371092;28;45356;-90
2022/10/20 07:44:57;;;;;;;;;5.75;5.75;;;;;18.32;74.01;100993.59;2372423;28;46011;-86
2022/10/20 07:46:09;;;;;;;;;6.25;5.25;;;;;18.32;74.15;100985.59;2364591;29;45429;-85
2022/10/20 07:47:19;;;;;;;;;6.00;5.00;;;;;18.32;74.72;100984.78;2374201;28;45425;-86
2022/10/20 07:48:31;;;;;;;;;6.50;5.00;;;;;18.34;74.46;100988.19;2374423;28;45253;-86
2022/10/20 07:49:41;;;;;;;;;4.75;4.75;;;;;18.33;74.62;100989.13;2375052;28;45453;-86
2022/10/20 07:50:52;;;;;;;;;7.50;6.75;;;;;18.32;74.72;100990.09;2374178;28;45344;-87
2022/10/20 07:52:02;;;;;;;;;6.00;4.25;;;;;18.32;74.61;100984.78;2372664;28;46668;-87
2022/10/20 07:53:13;;;;;;;;;6.00;5.25;;;;;18.32;74.38;100984.78;2363818;29;45251;-87
2022/10/20 07:54:23;;;;;;;;;9.75;7.50;;;;;18.32;74.62;100987.44;2367188;28;46279;-88
2022/10/20 07:55:33;;;;;;;;;5.00;4.75;;;;;18.32;74.56;100990.09;2374133;28;44716;-87
2022/10/20 07:56:45;;;;;;;;;6.25;5.50;;;;;18.32;74.70;100985.59;2374336;28;45516;-88
2022/10/20 07:57:55;;;;;;;;;5.75;4.25;;;;;18.33;74.62;100997.97;2365411;29;45250;-87
2022/10/20 07:59:07;;;;;;;;;6.00;5.00;;;;;18.33;74.69;101000.63;2363666;29;48420;-87
2022/10/20 08:00:17;;;;;;;;;4.50;3.00;;;;;18.34;74.69;100990.84;2367625;28;45523;-87
2022/10/20 08:01:28;;;;;;;;;5.75;4.50;;;;;18.34;74.51;100993.50;2370409;28;46439;-86
2022/10/20 08:02:39;;;;;;;;;6.50;6.25;;;;;18.34;74.93;100982.88;2373159;28;45619;-87
2022/10/20 08:03:50;;;;;;;;;6.75;6.50;;;;;18.35;75.11;100989.88;2362578;29;47111;-86
2022/10/20 08:05:00;;;;;;;;;7.50;5.00;;;;;18.37;75.03;100992.47;2367127;28;45303;-87
2022/10/20 08:06:11;;;;;;;;;5.50;4.00;;;;;18.36;74.76;100988.09;2374172;28;45451;-87
2022/10/20 08:07:21;;;;;;;;;6.75;6.00;;;;;18.35;75.35;100989.06;2374240;28;45436;-87
2022/10/20 08:08:33;;;;;;;;;6.75;5.25;;;;;18.37;74.80;100995.97;2374872;28;45444;-87
2022/10/20 08:09:44;;;;;;;;;5.75;5.00;;;;;18.37;75.08;100992.47;2374742;28;44644;-87
2022/10/20 08:10:56;;;;;;;;;5.00;5.00;;;;;18.38;74.76;100992.38;2364010;28;46326;-87
2022/10/20 08:12:07;;;;;;;;;6.00;6.00;;;;;18.40;75.14;100982.47;2364199;28;45261;-86
2022/10/20 08:13:17;;;;;;;;;5.50;5.00;;;;;18.42;75.08;100980.56;2373252;28;46204;-86
2022/10/20 08:14:32;;;;;;;;;8.50;5.00;;;;;18.43;74.86;100982.28;2372890;28;44760;-87
2022/10/20 08:15:42;;;;;;;;;5.50;5.25;;;;;18.48;75.63;100978.47;2375093;28;45461;-87
2022/10/20 08:16:53;;;;;;;;;5.00;4.00;;;;;18.51;75.38;100975.63;2372397;28;45503;-86
2022/10/20 08:18:04;;;;;;;;;5.75;5.00;;;;;18.56;74.96;100970.88;2374080;28;47539;-87
2022/10/20 08:19:14;;;;;;;;;5.75;3.50;;;;;18.59;74.40;100967.16;2374845;28;45180;-87
2022/10/20 08:20:24;;;;;;;;;4.25;4.25;;;;;18.63;74.91;100963.34;2374191;28;45494;-87
2022/10/20 08:21:35;;;;;;;;;6.50;6.25;;;;;18.68;74.67;100971.91;2373190;28;45145;-88
2022/10/20 08:22:45;;;;;;;;;4.50;4.50;;;;;18.74;74.04;100968.00;2374760;28;45292;-88
2022/10/20 08:23:55;;;;;;;;;4.00;4.00;;;;;18.80;74.54;100983.56;2375040;28;45284;-87
2022/10/20 08:25:06;;;;;;;;;7.50;4.25;;;;;18.84;74.58;100970.91;2363640;29;47039;-86
2022/10/20 08:26:22;;;;;;;;;4.25;2.75;;;;;18.92;74.65;100983.72;2358322;29;45351;-87
2022/10/20 08:27:32;;;;;;;;;6.00;3.75;;;;;18.95;74.19;100986.19;2368176;28;45494;-86
2022/10/20 08:28:42;;;;;;;;;3.75;3.75;;;;;18.98;73.50;100988.66;2373965;28;45348;-87
2022/10/20 08:29:53;;;;;;;;;4.50;3.00;;;;;19.01;74.28;100985.81;2374481;28;46269;-87
2022/10/20 08:31:05;;;;;;;;;6.00;4.00;;;;;19.05;73.52;100992.63;2373710;28;45252;-87
2022/10/20 08:32:16;;;;;;;;;6.00;4.75;;;;;19.09;73.61;100990.59;2374219;28;46348;-87
2022/10/20 08:33:26;;;;;;;;;4.50;4.00;;;;;19.11;73.19;100986.06;2372147;28;45301;-86
2022/10/20 08:34:36;;;;;;;;;4.00;3.00;;;;;19.17;73.75;100985.66;2366373;28;45457;-87
2022/10/20 08:35:47;;;;;;;;;4.75;4.25;;;;;19.20;73.92;100984.59;2367434;28;45355;-87
2022/10/20 08:36:57;;;;;;;;;3.50;3.50;;;;;19.22;73.40;100977.38;2375151;28;45252;-87
2022/10/20 08:38:07;;;;;;;;;4.00;4.00;;;;;19.26;73.25;100986.84;2372350;28;45388;-87
2022/10/20 08:39:18;;;;;;;;;4.75;4.75;;;;;19.29;73.12;100989.31;2374559;28;45751;-87
2022/10/20 08:40:29;;;;;;;;;4.25;4.00;;;;;19.34;73.53;100987.22;2374352;28;45332;-87
2022/10/20 08:41:46;;;;;;;;;4.00;3.25;;;;;19.36;73.42;100986.28;2364114;29;47253;-87
2022/10/20 08:42:57;;;;;;;;;4.00;4.00;;;;;19.40;73.22;100982.44;2363724;28;45497;-87
2022/10/20 08:44:17;;;;;;;;;4.25;4.00;;;;;19.43;72.63;100991.06;2367274;28;47400;-87
2022/10/20 08:45:28;;;;;;;;;4.00;4.00;;;;;19.44;72.95;100992.78;2374306;28;45232;-87
2022/10/20 08:46:39;;;;;;;;;3.25;3.25;;;;;19.49;72.40;100995.13;2374526;28;45374;-87
2022/10/20 08:47:53;;;;;;;;;5.00;4.25;;;;;19.51;72.58;100995.03;2364040;29;45511;-86
2022/10/20 08:49:06;;;;;;;;;4.00;3.50;;;;;19.54;72.24;100998.34;2367353;28;46376;-87
2022/10/20 08:50:18;;;;;;;;;4.00;3.50;;;;;19.57;72.03;100997.28;2374249;28;45261;-87
2022/10/20 08:51:37;;;;;;;;;3.00;3.00;;;;;19.62;72.28;100999.66;2374390;28;45769;-87
2022/10/20 08:52:53;;;;;;;;;4.50;3.50;;;;;19.63;72.58;100996.88;2361515;29;45386;-86
2022/10/20 08:54:10;;;;;;;;;4.75;4.75;;;;;19.62;72.22;100992.50;2363026;29;46266;-85
2022/10/20 08:55:27;;;;;;;;;7.00;3.75;;;;;19.65;72.38;100994.97;2367993;28;45417;-85
2022/10/20 08:56:37;;;;;;;;;4.50;3.50;;;;;19.64;72.68;100987.91;2364978;29;47764;-85
2022/10/20 08:57:48;;;;;;;;;4.25;4.25;;;;;19.67;72.32;100986.84;2365062;29;45384;-85
2022/10/20 08:58:59;;;;;;;;;5.75;3.00;;;;;19.70;72.40;100986.66;2367673;28;45356;-85
2022/10/20 09:00:20;;;;;;;;;6.25;3.00;;;;;19.73;72.63;100985.59;2375046;28;45312;-86
2022/10/20 09:01:34;;;;;;;;;6.00;4.00;;;;;19.74;72.40;100993.47;2374700;28;46613;-87
2022/10/20 09:02:47;;;;;;;;;4.75;3.25;;;;;19.77;72.79;100993.28;2371618;28;45228;-87
2022/10/20 09:04:25;;;;;;;;;4.00;3.25;;;;;19.81;72.51;100998.38;2369133;28;46319;-87
2022/10/20 09:05:41;;;;;;;;;4.25;3.00;;;;;19.85;72.14;100999.91;2374233;28;45212;-87
2022/10/20 09:07:01;;;;;;;;;4.50;3.50;;;;;19.86;72.13;100994.44;2365988;29;45446;-87
2022/10/20 09:08:12;;;;;;;;;3.00;3.00;;;;;19.90;72.39;100995.09;2374066;28;45401;-87
2022/10/20 09:09:24;;;;;;;;;3.00;2.25;;;;;19.92;71.95;101000.31;2374047;28;47888;-87
2022/10/20 09:10:37;;;;;;;;;2.75;2.75;;;;;19.91;71.10;100996.78;2374438;28;45323;-88
2022/10/20 09:11:48;;;;;;;;;3.25;3.25;;;;;19.92;71.45;101001.19;2373041;28;45322;-87
2022/10/20 09:12:59;;;;;;;;;5.00;5.00;;;;;19.90;72.00;101006.59;2362682;29;45386;-87
2022/10/20 09:14:11;;;;;;;;;7.00;3.75;;;;;19.87;71.05;101000.66;2356048;29;47122;-88
2022/10/20 09:15:24;;;;;;;;;4.00;4.00;;;;;19.86;71.97;100996.25;2358500;29;45496;-88
2022/10/20 09:16:38;;;;;;;;;4.00;3.00;;;;;19.84;71.73;101000.84;2360744;29;46672;-88
2022/10/20 09:17:53;;;;;;;;;7.75;4.00;;;;;19.81;71.76;100998.38;2368168;28;45331;-88
2022/10/20 09:19:10;;;;;;;;;4.50;3.75;;;;;19.77;71.51;101001.28;2364883;29;46310;-88
2022/10/20 09:20:29;;;;;;;;;7.75;4.00;;;;;19.74;71.67;100996.16;2377126;28;45228;-88
2022/10/20 09:21:40;;;;;;;;;3.50;2.75;;;;;19.72;72.08;100994.53;2374750;28;46363;-89
2022/10/20 09:22:51;;;;;;;;;5.00;4.00;;;;;19.70;71.27;100999.13;2364892;29;44765;-88
2022/10/20 09:24:04;;;;;;;;;3.00;3.00;;;;;19.67;71.84;101000.19;2367182;28;45532;-89
2022/10/20 09:25:22;;;;;;;;;2.25;2.25;;;;;19.66;71.74;100999.31;2373406;28;45293;-89
2022/10/20 09:26:37;;;;;;;;;3.00;2.00;;;;;19.62;72.12;100987.16;2364455;29;47209;-89
2022/10/20 09:27:48;;;;;;;;;3.00;3.00;;;;;19.63;71.91;100999.53;2367941;28;45731;-88
2022/10/20 09:29:06;;;;;;;;;3.00;3.00;;;;;19.62;72.42;100986.31;2360253;29;47384;-89
2022/10/20 09:30:19;;;;;;;;;2.75;2.00;;;;;19.62;72.31;100995.16;2359611;29;45197;-89
2022/10/20 09:31:35;;;;;;;;;4.00;2.25;;;;;19.60;72.44;100988.22;2361791;29;48044;-89
2022/10/20 09:32:47;;;;;;;;;2.00;2.00;;;;;19.60;71.82;100988.22;2352902;29;45202;-89
2022/10/20 09:33:57;;;;;;;;;4.00;4.00;;;;;19.56;71.89;100980.44;2365253;28;47033;-89
2022/10/20 09:35:11;;;;;;;;;3.25;3.25;;;;;19.59;72.19;100983.84;2367634;28;45472;-89
2022/10/20 09:36:30;;;;;;;;;3.50;2.00;;;;;19.56;72.14;100982.25;2373781;28;47041;-89
2022/10/20 09:37:42;;;;;;;;;2.00;2.00;;;;;19.55;71.77;100983.22;2364939;29;44660;-89
2022/10/20 09:38:52;;;;;;;;;3.50;3.25;;;;;19.55;71.67;100978.75;2367634;28;45384;-88
2022/10/20 09:40:03;;;;;;;;;3.75;3.50;;;;;19.53;71.81;100977.97;2374782;28;45211;-88
2022/10/20 09:41:27;;;;;;;;;2.75;2.00;;;;;19.54;72.35;100970.84;2374521;28;45588;-88
2022/10/20 09:42:42;;;;;;;;;3.50;3.00;;;;;19.53;71.77;100974.47;2363931;29;45228;-88
2022/10/20 09:43:55;;;;;;;;;4.50;4.00;;;;;19.50;71.55;100970.19;2357014;29;48077;-89
2022/10/20 09:45:14;;;;;;;;;5.00;3.25;;;;;19.50;72.07;100974.66;2358917;29;44601;-88
2022/10/20 09:46:37;;;;;;;;;4.25;4.25;;;;;19.52;71.83;100973.63;2371857;28;47630;-86
2022/10/20 09:47:53;;;;;;;;;4.00;2.00;;;;;19.51;71.42;100984.34;2360585;29;44780;-89
2022/10/20 09:49:06;;;;;;;;;3.50;3.25;;;;;19.50;71.50;100985.34;2359070;29;48154;-88
2022/10/20 09:50:21;;;;;;;;;5.00;4.00;;;;;19.52;71.86;100981.59;2364628;29;45339;-88
2022/10/20 09:51:32;;;;;;;;;2.00;2.00;;;;;19.54;71.59;100973.50;2365151;28;45682;-88
2022/10/20 09:52:47;;;;;;;;;2.75;2.25;;;;;19.54;71.94;100984.16;2374102;28;44721;-88
2022/10/20 09:54:16;;;;;;;;;4.25;3.25;;;;;19.56;71.31;100974.25;2364494;29;45996;-88
2022/10/20 09:55:32;;;;;;;;;3.50;3.00;;;;;19.54;71.63;100974.34;2361130;29;44575;-88
2022/10/20 09:56:45;;;;;;;;;4.25;2.50;;;;;19.56;71.33;100968.91;2371659;28;46521;-88
2022/10/20 09:57:59;;;;;;;;;3.00;3.00;;;;;19.56;71.11;100977.78;2374831;28;45171;-88
2022/10/20 09:59:35;;;;;;;;;3.25;2.75;;;;;19.56;71.41;100966.25;2372392;28;45895;-87
2022/10/20 10:01:04;;;;;;;;;4.25;3.00;;;;;19.58;71.32;100976.81;2372636;28;45409;-87
2022/10/20 10:02:14;;;;;;;;;4.00;3.00;;;;;19.60;71.37;100974.91;2373461;28;46538;-87
2022/10/20 10:03:25;;;;;;;;;3.00;3.00;;;;;19.59;71.01;100971.38;2372279;28;45485;-87
2022/10/20 10:04:38;;;;;;;;;2.75;2.00;;;;;19.59;70.85;100970.50;2361931;29;47219;-87
2022/10/20 10:05:56;;;;;;;;;4.00;2.00;;;;;19.61;71.25;100960.59;2357410;29;44819;-87
2022/10/20 10:07:32;;;;;;;;;5.00;3.00;;;;;19.62;70.96;100959.66;2359388;29;48109;-88
2022/10/20 10:08:45;;;;;;;;;2.75;2.00;;;;;19.62;71.13;100956.97;2371134;28;44947;-88
2022/10/20 10:09:58;;;;;;;;;3.00;3.00;;;;;19.65;70.86;100967.44;2375677;28;46613;-87
2022/10/20 10:11:20;;;;;;;;;3.00;2.50;;;;;19.67;71.01;100968.19;2376030;28;45323;-88
2022/10/20 10:12:31;;;;;;;;;2.50;2.50;;;;;19.66;70.96;100963.81;2375907;28;45354;-87
2022/10/20 10:13:44;;;;;;;;;3.50;2.50;;;;;19.68;70.55;100961.88;2375695;28;45256;-87
2022/10/20 10:15:00;;;;;;;;;3.25;2.00;;;;;19.69;70.10;100968.94;2370899;28;47555;-87
2022/10/20 10:16:14;;;;;;;;;3.25;2.00;;;;;19.69;70.68;100960.94;2368157;28;44801;-88
2022/10/20 10:17:42;;;;;;;;;3.00;3.00;;;;;19.70;70.33;100965.31;2359633;29;47224;-88
2022/10/20 10:19:01;;;;;;;;;3.00;2.75;;;;;19.73;70.27;100969.59;2359367;29;45194;-87
2022/10/20 10:20:11;;;;;;;;;4.00;2.00;;;;;19.75;70.20;100965.88;2367608;28;46478;-88
2022/10/20 10:21:22;;;;;;;;;2.00;2.00;;;;;19.76;70.21;100954.22;2373172;28;45458;-87
2022/10/20 10:22:33;;;;;;;;;1.50;1.50;;;;;19.78;69.84;100962.97;2365135;29;48184;-87
2022/10/20 10:23:56;;;;;;;;;1.00;1.00;;;;;19.85;69.69;100957.22;2359162;29;45396;-87
2022/10/20 10:25:15;;;;;;;;;3.00;1.00;;;;;19.87;69.16;100948.16;2357711;29;48019;-86
2022/10/20 10:26:43;;;;;;;;;2.00;2.00;;;;;19.94;69.71;100948.56;2370330;28;45264;-87
2022/10/20 10:28:05;;;;;;;;;2.75;2.00;;;;;19.98;69.01;100950.06;2365739;29;47649;-87
2022/10/20 10:29:32;;;;;;;;;1.00;1.00;;;;;20.08;68.89;100954.75;2370392;28;45279;-87
2022/10/20 10:30:42;;;;;;;;;3.00;2.00;;;;;20.13;69.20;100950.84;2371106;28;45592;-87
2022/10/20 10:32:02;;;;;;;;;3.00;1.00;;;;;20.20;69.31;100947.75;2362813;29;45237;-87
2022/10/20 10:33:27;;;;;;;;;2.25;2.00;;;;;20.27;69.23;100940.16;2366168;28;45454;-88
2022/10/20 10:34:57;;;;;;;;;2.00;1.25;;;;;20.35;68.47;100940.44;2362381;29;44805;-89
2022/10/20 10:36:34;;;;;;;;;1.00;1.00;;;;;20.42;68.01;100935.53;2365460;28;47304;-90
2022/10/20 10:37:46;;;;;;;;;1.00;1.00;;;;;20.44;67.87;100936.28;2371515;28;45538;-91
2022/10/20 10:38:58;;;;;;;;;1.00;1.00;;;;;20.50;68.01;100945.63;2372582;28;45283;-90
2022/10/20 10:40:15;;;;;;;;;1.75;1.00;;;;;20.56;67.70;100942.53;2363302;29;45529;-89
2022/10/20 10:41:32;;;;;;;;;3.00;1.75;;;;;20.61;67.49;100942.19;2353112;29;48253;-92
2022/10/20 10:43:09;;;;;;;;;2.00;2.00;;;;;20.62;67.58;100938.56;2369572;28;45312;-91
2022/10/20 10:44:48;;;;;;;;;4.00;2.25;;;;;20.66;67.74;100930.22;2364742;28;47186;-90
2022/10/20 10:46:06;;;;;;;;;2.00;2.00;;;;;20.73;67.54;100929.75;2370237;28;45556;-93
2022/10/20 10:47:44;;;;;;;;;0.00;0.00;;;;;20.81;67.37;100940.75;2365104;29;47520;-94
2022/10/20 10:49:29;;;;;;;;;3.75;1.00;;;;;20.91;67.09;100936.41;2366703;28;46033;-90
2022/10/20 10:50:57;;;;;;;;;1.00;1.00;;;;;20.98;66.60;100934.16;2374723;28;46415;-90
2022/10/20 10:52:24;;;;;;;;;2.00;2.00;;;;;21.05;66.72;100928.34;2375665;28;45164;-89
2022/10/20 10:53:49;;;;;;;;;1.25;1.25;;;;;21.12;66.26;100918.91;2375356;28;46757;-89
2022/10/20 10:55:17;;;;;;;;;1.00;1.00;;;;;21.19;66.50;100921.97;2363185;29;45416;-88
2022/10/20 10:57:01;;;;;;;;;2.00;2.00;;;;;21.23;65.61;100921.66;2366177;28;46853;-89
2022/10/20 10:58:40;;;;;;;;;2.25;1.00;;;;;21.26;65.32;100920.53;2371218;28;44863;-89
2022/10/20 10:59:52;;;;;;;;;1.50;1.50;;;;;21.24;64.63;100907.28;2366000;28;46629;-87
2022/10/20 11:01:41;;;;;;;;;1.50;0.75;;;;;21.25;65.27;100910.81;2375553;28;45735;-86
2022/10/20 11:03:14;;;;;;;;;1.00;1.00;;;;;21.25;64.98;100914.34;2373502;28;45570;-90
2022/10/20 11:04:36;;;;;;;;;1.00;1.00;;;;;21.28;65.05;100918.63;2369804;28;44738;-83
2022/10/20 11:05:59;;;;;;;;;3.50;2.00;;;;;21.27;64.87;100911.56;2370161;28;45316;-89
2022/10/20 11:07:30;;;;;;;;;1.00;1.00;;;;;21.27;65.03;100916.91;2370762;28;45478;-88
2022/10/20 11:09:05;;;;;;;;;1.50;1.00;;;;;21.27;65.06;100906.22;2374739;28;45430;-88
2022/10/20 11:10:40;;;;;;;;;0.25;0.00;;;;;21.30;64.79;100905.97;2365741;29;45317;-91
2022/10/20 11:11:53;;;;;;;;;0.00;0.00;;;;;21.33;65.24;100913.78;2354145;29;48418;-89
2022/10/20 11:13:34;;;;;;;;;1.00;1.00;;;;;21.33;64.96;100905.75;2368775;28;45304;-88
2022/10/20 11:15:21;;;;;;;;;0.75;0.75;;;;;21.31;64.95;100898.81;2366518;29;45271;-89
2022/10/20 11:17:02;;;;;;;;;0.75;0.75;;;;;21.29;64.21;100904.28;2366065;29;45354;-88
2022/10/20 11:18:39;;;;;;;;;0.00;0.00;;;;;21.32;64.75;100896.03;2366507;29;46705;-89
2022/10/20 11:19:59;;;;;;;;;1.00;1.00;;;;;21.32;64.21;100895.16;2356702;29;45321;-89
2022/10/20 11:21:21;;;;;;;;;1.00;1.00;;;;;21.31;63.30;100896.97;2360490;29;45470;-89
2022/10/20 11:23:00;;;;;;;;;0.75;0.75;;;;;21.30;63.45;100897.09;2364649;29;45451;-88
2022/10/20 11:24:20;;;;;;;;;0.00;0.00;;;;;21.30;63.55;100894.44;2372153;28;45387;-89
2022/10/20 11:26:01;;;;;;;;;1.00;1.00;;;;;21.30;63.81;100894.44;2375720;28;44750;-90
2022/10/20 11:27:33;;;;;;;;;1.00;0.00;;;;;21.31;62.82;100890.81;2375768;28;46675;-89
2022/10/20 11:28:50;;;;;;;;;0.00;0.00;;;;;21.34;63.64;100890.53;2365482;28;45268;-89
2022/10/20 11:30:14;;;;;;;;;1.00;1.00;;;;;21.38;64.21;100885.84;2359602;29;48376;-90
2022/10/20 11:31:40;;;;;;;;;2.50;1.00;;;;;21.42;63.40;100892.63;2369487;28;45243;-89
2022/10/20 11:33:00;;;;;;;;;1.00;1.00;;;;;21.48;63.96;100882.31;2375470;28;45625;-89
2022/10/20 11:34:26;;;;;;;;;1.75;1.75;;;;;21.53;63.00;100883.78;2364973;29;45251;-91
2022/10/20 11:36:12;;;;;;;;;3.00;1.00;;;;;21.61;63.50;100881.34;2368730;28;46359;-90
2022/10/20 11:37:27;;;;;;;;;2.00;1.00;;;;;21.66;62.87;100889.00;2367509;28;44622;-89
2022/10/20 11:38:43;;;;;;;;;0.00;0.00;;;;;21.68;62.70;100887.09;2365665;29;48439;-90
2022/10/20 11:40:05;;;;;;;;;0.25;0.25;;;;;21.74;62.68;100886.59;2359774;29;45244;-90
2022/10/20 11:41:30;;;;;;;;;0.50;0.50;;;;;21.75;63.37;100866.91;2369677;28;46416;-89
2022/10/20 11:42:45;;;;;;;;;2.00;1.00;;;;;21.80;62.86;100878.06;2375563;28;45175;-89
2022/10/20 11:44:05;;;;;;;;;2.00;1.00;;;;;21.84;62.45;100881.38;2373637;28;47820;-89
2022/10/20 11:45:44;;;;;;;;;1.50;1.00;;;;;21.84;62.71;100869.81;2366514;29;45172;-89
2022/10/20 11:47:00;;;;;;;;;1.00;1.00;;;;;21.80;62.71;100863.88;2366284;29;45282;-89
2022/10/20 11:48:29;;;;;;;;;1.25;1.25;;;;;21.80;62.58;100863.88;2365677;29;44773;-89
2022/10/20 11:49:40;;;;;;;;;1.00;1.00;;;;;21.74;62.53;100854.50;2356215;29;47117;-89
2022/10/20 11:51:22;;;;;;;;;0.25;0.25;;;;;21.75;63.46;100858.03;2359360;29;45785;-88
2022/10/20 11:52:46;;;;;;;;;1.00;1.00;;;;;21.68;63.41;100845.13;2374011;28;48586;-89
2022/10/20 11:54:25;;;;;;;;;2.75;1.25;;;;;21.70;63.19;100842.34;2371828;28;45328;-88
2022/10/20 11:55:56;;;;;;;;;2.00;1.00;;;;;21.69;63.36;100846.84;2374390;28;47499;-89
2022/10/20 11:57:23;;;;;;;;;1.25;1.00;;;;;21.67;63.30;100837.25;2378420;28;44641;-89
2022/10/20 11:58:49;;;;;;;;;1.00;1.00;;;;;21.66;63.63;100835.53;2363467;29;48155;-89
2022/10/20 12:00:19;;;;;;;;;1.75;1.75;;;;;21.62;63.84;100826.91;2360679;29;44787;-89
2022/10/20 12:01:40;;;;;;;;;0.75;0.75;;;;;21.60;63.18;100834.22;2370050;28;48400;-87
2022/10/20 12:03:27;;;;;;;;;2.00;1.00;;;;;21.57;63.50;100835.31;2365596;29;44798;-88
2022/10/20 12:05:00;;;;;;;;;1.00;1.00;;;;;21.51;63.37;100827.75;2364289;29;46469;-88
2022/10/20 12:06:33;;;;;;;;;1.25;1.00;;;;;21.48;63.68;100836.84;2362067;28;44747;-88
2022/10/20 12:08:18;;;;;;;;;0.00;0.00;;;;;21.45;63.87;100833.59;2375506;28;45285;-88
2022/10/20 12:09:34;;;;;;;;;0.00;0.00;;;;;21.43;63.61;100832.88;2375631;28;45434;-87
2022/10/20 12:11:22;;;;;;;;;1.00;1.00;;;;;21.42;63.65;100833.81;2375269;28;45406;-89
2022/10/20 12:12:42;;;;;;;;;1.00;1.00;;;;;21.40;63.33;100828.59;2370567;28;45329;-89
2022/10/20 12:14:19;;;;;;;;;0.00;0.00;;;;;21.41;63.51;100826.78;2374869;28;45413;-88